Time;durP1;ratioP1;P1;durP2;ratioP2;P2;SDS_P1;SDS_P2;PMS_P1;PMS_P2;Temp;Humidity;BMP_temperature;BMP_pressure;BME280_temperature;BME280_humidity;BME280_pressure;Samples;Min_cycle;Max_cycle;Signal;HPM_P1;HPM_P2
2022/09/22 00:00:55;;;;;;;6.03;2.58;;;13.50;97.20;;;;;;4982583;28;20461;-70
2022/09/22 00:03:21;;;;;;;4.57;2.50;;;13.50;97.20;;;;;;4982210;28;20018;-71
2022/09/22 00:05:46;;;;;;;3.25;2.45;;;13.50;97.20;;;;;;4982063;28;20050;-70
2022/09/22 00:08:12;;;;;;;5.10;3.00;;;13.50;97.20;;;;;;4981461;28;20041;-71
2022/09/22 00:10:38;;;;;;;5.45;3.28;;;13.50;97.20;;;;;;4982189;28;20034;-71
2022/09/22 00:13:04;;;;;;;4.63;2.50;;;13.50;97.20;;;;;;4984697;28;20037;-72
2022/09/22 00:15:30;;;;;;;4.35;2.58;;;13.50;97.30;;;;;;4982130;28;20027;-70
2022/09/22 00:17:55;;;;;;;4.63;2.83;;;13.50;97.30;;;;;;4981467;28;20034;-70
2022/09/22 00:20:21;;;;;;;3.80;2.58;;;13.50;97.30;;;;;;4981522;28;20046;-70
2022/09/22 00:22:50;;;;;;;4.40;2.63;;;13.40;97.30;;;;;;4981335;28;20052;-70
2022/09/22 00:25:17;;;;;;;4.35;2.70;;;13.40;97.30;;;;;;4982065;28;20427;-70
2022/09/22 00:27:43;;;;;;;5.30;2.85;;;13.40;97.30;;;;;;4981733;28;20054;-71
2022/09/22 00:30:10;;;;;;;4.10;2.80;;;13.30;97.40;;;;;;4964656;28;20022;-71
2022/09/22 00:32:39;;;;;;;4.95;3.20;;;13.30;97.40;;;;;;4985276;28;20034;-71
2022/09/22 00:35:05;;;;;;;4.22;2.83;;;13.30;97.40;;;;;;4983879;28;20026;-72
2022/09/22 00:37:32;;;;;;;5.07;3.38;;;13.20;97.40;;;;;;4983226;28;20034;-71
2022/09/22 00:39:57;;;;;;;4.63;2.53;;;13.10;97.40;;;;;;4981590;28;20524;-70
2022/09/22 00:42:24;;;;;;;5.43;2.97;;;13.10;97.40;;;;;;4979357;28;20161;-71
2022/09/22 00:44:50;;;;;;;4.95;2.80;;;13.10;97.50;;;;;;4982256;28;20065;-71
2022/09/22 00:47:25;;;;;;;4.65;2.80;;;13.00;97.50;;;;;;4981328;28;20034;-71
2022/09/22 00:49:54;;;;;;;6.70;3.00;;;13.00;97.50;;;;;;4982371;28;20026;-70
2022/09/22 00:52:29;;;;;;;4.25;2.88;;;13.00;97.60;;;;;;4981264;28;20556;-71
2022/09/22 00:54:59;;;;;;;4.15;2.78;;;12.90;97.70;;;;;;4981055;28;20048;-71
2022/09/22 00:57:30;;;;;;;4.10;2.72;;;12.90;97.70;;;;;;4981655;28;20034;-71
2022/09/22 00:59:56;;;;;;;4.65;2.65;;;12.90;97.80;;;;;;4980870;28;20121;-71
2022/09/22 01:02:23;;;;;;;3.72;2.63;;;12.80;97.80;;;;;;4980924;28;20026;-71
2022/09/22 01:04:51;;;;;;;3.88;2.53;;;12.70;97.90;;;;;;4980759;28;20169;-70
2022/09/22 01:07:19;;;;;;;4.75;2.80;;;12.70;98.10;;;;;;4980525;28;20049;-70
2022/09/22 01:09:45;;;;;;;4.07;2.83;;;12.70;98.10;;;;;;4980799;28;20041;-70
2022/09/22 01:12:11;;;;;;;4.18;2.67;;;12.70;98.20;;;;;;4981169;28;20035;-70
2022/09/22 01:14:53;;;;;;;4.68;2.85;;;12.60;98.20;;;;;;4981236;28;20039;-71
2022/09/22 01:17:40;;;;;;;3.67;2.40;;;12.60;98.30;;;;;;4980213;28;20080;-71
2022/09/22 01:20:27;;;;;;;3.58;2.63;;;12.60;98.30;;;;;;4980597;28;20049;-71
2022/09/22 01:23:14;;;;;;;4.28;3.17;;;12.60;98.40;;;;;;4981073;28;20597;-71
2022/09/22 01:26:18;;;;;;;4.07;2.60;;;12.60;98.30;;;;;;4980836;28;20042;-71
2022/09/22 01:29:24;;;;;;;3.97;2.90;;;12.50;98.30;;;;;;4982463;28;20210;-71
2022/09/22 01:32:09;;;;;;;4.78;2.60;;;12.50;98.40;;;;;;4985792;28;20037;-71
2022/09/22 01:34:57;;;;;;;4.22;2.65;;;12.50;98.50;;;;;;4981516;28;20035;-71
2022/09/22 01:37:54;;;;;;;6.30;3.22;;;12.50;98.50;;;;;;4979613;28;20486;-71
2022/09/22 01:40:27;;;;;;;4.70;2.72;;;12.40;98.50;;;;;;4971887;28;20051;-71
2022/09/22 01:42:57;;;;;;;4.75;2.83;;;12.40;98.50;;;;;;4980375;28;20083;-70
2022/09/22 01:45:29;;;;;;;4.63;2.97;;;12.40;98.60;;;;;;4981119;28;20512;-71
2022/09/22 01:48:07;;;;;;;2.83;2.10;;;12.40;98.60;;;;;;4979772;28;20758;-70
2022/09/22 01:50:38;;;;;;;4.90;2.80;;;12.30;98.70;;;;;;4980551;28;20037;-70
2022/09/22 01:53:13;;;;;;;4.05;2.80;;;12.30;98.70;;;;;;4981559;28;20120;-70
2022/09/22 01:55:41;;;;;;;3.47;2.50;;;12.30;98.90;;;;;;4979131;28;20044;-71
2022/09/22 01:58:18;;;;;;;4.22;2.67;;;12.30;98.90;;;;;;4979652;28;20101;-71
2022/09/22 02:01:00;;;;;;;3.20;2.20;;;12.30;99.00;;;;;;4979962;28;20026;-71
2022/09/22 02:03:37;;;;;;;5.30;2.63;;;12.30;99.10;;;;;;4980076;28;20026;-70
2022/09/22 02:06:17;;;;;;;3.80;2.33;;;12.30;99.10;;;;;;4979119;28;20175;-70
2022/09/22 02:08:58;;;;;;;6.07;3.70;;;12.30;99.10;;;;;;4980112;28;20516;-71
2022/09/22 02:11:24;;;;;;;4.28;3.20;;;12.40;99.40;;;;;;4979928;28;21632;-71
2022/09/22 02:13:51;;;;;;;3.95;2.67;;;12.30;99.10;;;;;;4980133;28;20033;-70
2022/09/22 02:16:20;;;;;;;3.50;2.42;;;12.30;99.20;;;;;;4979047;28;20054;-71
2022/09/22 02:18:57;;;;;;;2.97;2.20;;;12.30;99.20;;;;;;4979743;28;20046;-71
2022/09/22 02:21:26;;;;;;;3.45;2.53;;;12.30;99.10;;;;;;4963152;28;20034;-70
2022/09/22 02:23:53;;;;;;;4.65;2.72;;;12.30;99.10;;;;;;4979600;28;20034;-70
2022/09/22 02:26:26;;;;;;;3.08;2.10;;;12.30;99.10;;;;;;4979115;28;20022;-70
2022/09/22 02:29:06;;;;;;;2.90;2.15;;;12.40;99.20;;;;;;4979354;28;20758;-70
2022/09/22 02:31:36;;;;;;;3.17;2.30;;;12.30;99.10;;;;;;4979167;28;20071;-70
2022/09/22 02:34:04;;;;;;;3.53;2.30;;;12.30;99.20;;;;;;4984408;28;20505;-71
2022/09/22 02:36:50;;;;;;;3.33;2.30;;;12.30;99.20;;;;;;4978905;28;20058;-71
2022/09/22 02:39:30;;;;;;;4.40;3.00;;;12.30;99.20;;;;;;4979912;28;20591;-71
2022/09/22 02:42:06;;;;;;;3.42;2.40;;;12.30;99.20;;;;;;4979227;28;20058;-71
2022/09/22 02:45:11;;;;;;;4.55;2.50;;;12.30;99.20;;;;;;4980430;28;20053;-71
2022/09/22 02:47:42;;;;;;;3.50;2.13;;;12.20;99.20;;;;;;4978320;28;20042;-71
2022/09/22 02:50:11;;;;;;;4.15;2.50;;;12.20;99.20;;;;;;4979445;28;20048;-70
2022/09/22 02:52:38;;;;;;;3.55;2.38;;;12.20;99.20;;;;;;4979442;28;20051;-70
2022/09/22 02:55:06;;;;;;;3.72;2.45;;;12.20;99.20;;;;;;4980342;28;20136;-71
2022/09/22 02:57:31;;;;;;;3.78;2.22;;;12.10;99.20;;;;;;4979524;28;20034;-71
2022/09/22 02:59:57;;;;;;;3.25;2.40;;;12.10;99.30;;;;;;4978057;28;20042;-71
2022/09/22 03:02:22;;;;;;;4.85;2.35;;;12.10;99.30;;;;;;4979303;28;20030;-71
2022/09/22 03:04:50;;;;;;;5.22;2.63;;;12.10;99.30;;;;;;4977897;28;20033;-70
2022/09/22 03:07:19;;;;;;;3.58;2.47;;;12.00;99.30;;;;;;4978667;28;20659;-71
2022/09/22 03:09:45;;;;;;;3.42;2.15;;;12.00;99.40;;;;;;4980136;28;20038;-70
2022/09/22 03:12:10;;;;;;;3.67;2.40;;;12.00;99.40;;;;;;4978072;28;20087;-70
2022/09/22 03:14:37;;;;;;;3.50;2.38;;;11.90;99.50;;;;;;4979594;28;20049;-70
2022/09/22 03:17:03;;;;;;;2.90;2.30;;;11.90;99.50;;;;;;4978514;28;20026;-70
2022/09/22 03:19:28;;;;;;;4.72;2.60;;;11.90;99.80;;;;;;4979752;28;20556;-70
2022/09/22 03:21:54;;;;;;;4.00;2.42;;;11.80;99.60;;;;;;4978581;28;20088;-71
2022/09/22 03:24:20;;;;;;;3.95;2.70;;;11.80;99.60;;;;;;4979149;28;20117;-70
2022/09/22 03:26:45;;;;;;;3.85;2.58;;;11.80;99.60;;;;;;4978759;28;20040;-70
2022/09/22 03:29:11;;;;;;;3.95;2.70;;;11.80;99.70;;;;;;4983878;28;20062;-70
2022/09/22 03:31:37;;;;;;;2.85;1.98;;;11.80;99.70;;;;;;4978357;28;20041;-71
2022/09/22 03:34:02;;;;;;;4.13;2.15;;;11.70;99.70;;;;;;4978921;28;20030;-70
2022/09/22 03:36:28;;;;;;;4.30;2.55;;;11.70;99.70;;;;;;4978279;28;20061;-71
2022/09/22 03:38:53;;;;;;;4.20;2.30;;;11.70;99.80;;;;;;4979698;28;22875;-70
2022/09/22 03:41:20;;;;;;;3.08;2.17;;;11.80;99.80;;;;;;4960982;28;20510;-70
2022/09/22 03:43:46;;;;;;;4.15;2.55;;;11.70;99.80;;;;;;4982762;28;20125;-71
2022/09/22 03:46:13;;;;;;;3.75;2.40;;;11.70;99.80;;;;;;4977957;28;20027;-70
2022/09/22 03:48:39;;;;;;;3.60;2.38;;;11.70;99.80;;;;;;4978929;28;20496;-70
2022/09/22 03:51:05;;;;;;;3.38;2.58;;;11.60;99.80;;;;;;4977594;28;20026;-70
2022/09/22 03:53:31;;;;;;;3.67;2.30;;;11.60;99.80;;;;;;4978107;28;20375;-71
2022/09/22 03:56:24;;;;;;;5.90;2.50;;;11.60;99.90;;;;;;4959717;28;20034;-70
2022/09/22 03:58:49;;;;;;;4.43;2.30;;;11.60;99.80;;;;;;4976295;28;20198;-70
2022/09/22 04:01:15;;;;;;;3.35;2.45;;;11.50;99.80;;;;;;4978085;28;20800;-70
2022/09/22 04:03:40;;;;;;;4.97;2.20;;;11.50;99.90;;;;;;4978926;28;20028;-71
2022/09/22 04:06:07;;;;;;;4.75;2.63;;;11.50;99.90;;;;;;4977748;28;20030;-71
2022/09/22 04:08:33;;;;;;;3.80;2.30;;;11.50;99.90;;;;;;4978284;28;20037;-68
2022/09/22 04:10:59;;;;;;;4.72;2.50;;;11.50;99.90;;;;;;4979333;28;20042;-69
2022/09/22 04:13:25;;;;;;;3.17;2.22;;;11.40;99.90;;;;;;4980942;28;20113;-69
2022/09/22 04:15:51;;;;;;;5.10;2.30;;;11.50;99.90;;;;;;4981461;28;20126;-69
2022/09/22 04:18:16;;;;;;;4.28;2.25;;;11.50;99.90;;;;;;4981133;28;20474;-68
2022/09/22 04:20:43;;;;;;;3.25;2.50;;;11.50;99.90;;;;;;4981704;28;20483;-69
2022/09/22 04:23:12;;;;;;;4.43;2.40;;;11.50;99.90;;;;;;4980102;28;20034;-69
2022/09/22 04:25:38;;;;;;;3.40;2.30;;;11.50;99.90;;;;;;4980726;28;20041;-69
2022/09/22 04:28:05;;;;;;;3.40;2.30;;;11.50;99.90;;;;;;4980107;28;20418;-68
2022/09/22 04:30:31;;;;;;;5.55;2.58;;;11.50;99.90;;;;;;4981617;28;20035;-69
2022/09/22 04:32:58;;;;;;;3.00;2.22;;;11.50;99.90;;;;;;4986620;28;20037;-69
2022/09/22 04:35:27;;;;;;;5.20;2.33;;;11.50;99.90;;;;;;4981253;28;20078;-69
2022/09/22 04:37:54;;;;;;;5.32;2.58;;;11.40;99.90;;;;;;4980609;28;20093;-69
2022/09/22 04:40:21;;;;;;;4.25;2.15;;;11.40;99.90;;;;;;4980322;28;20078;-69
2022/09/22 04:42:47;;;;;;;4.13;2.47;;;11.40;99.80;;;;;;4981149;28;20034;-69
2022/09/22 04:45:13;;;;;;;4.30;2.78;;;11.40;99.90;;;;;;4981228;28;20128;-69
2022/09/22 04:47:40;;;;;;;4.28;2.90;;;11.30;99.90;;;;;;4982316;28;20045;-69
2022/09/22 04:50:06;;;;;;;4.35;2.67;;;11.30;99.90;;;;;;4982631;28;20121;-69
2022/09/22 04:52:32;;;;;;;3.40;2.40;;;11.30;99.90;;;;;;4980566;28;20045;-69
2022/09/22 04:54:57;;;;;;;5.00;2.92;;;11.30;99.90;;;;;;4981385;28;20026;-69
2022/09/22 04:57:23;;;;;;;3.75;2.47;;;11.20;99.90;;;;;;4980618;28;20039;-69
2022/09/22 04:59:49;;;;;;;5.60;3.33;;;11.20;99.90;;;;;;4981336;28;20046;-69
2022/09/22 05:02:14;;;;;;;5.72;2.95;;;11.20;99.90;;;;;;4980111;28;20031;-69
2022/09/22 05:04:40;;;;;;;3.65;2.65;;;11.20;99.90;;;;;;4980454;28;20540;-69
2022/09/22 05:07:06;;;;;;;4.70;2.90;;;11.20;99.90;;;;;;4980671;28;20164;-69
2022/09/22 05:09:33;;;;;;;4.53;3.20;;;11.20;99.90;;;;;;4979610;28;20030;-69
2022/09/22 05:11:59;;;;;;;3.70;2.65;;;11.20;99.90;;;;;;4979558;28;20604;-69
2022/09/22 05:14:25;;;;;;;3.95;3.13;;;11.20;99.90;;;;;;4980608;28;20038;-69
2022/09/22 05:16:51;;;;;;;4.43;2.90;;;11.20;99.90;;;;;;4979305;28;20022;-69
2022/09/22 05:19:17;;;;;;;4.70;3.05;;;11.20;99.90;;;;;;4981512;28;20968;-69
2022/09/22 05:21:42;;;;;;;10.02;3.40;;;11.20;99.90;;;;;;4980432;28;20458;-69
2022/09/22 05:24:08;;;;;;;4.93;2.95;;;11.20;99.90;;;;;;4978822;28;20026;-69
2022/09/22 05:26:33;;;;;;;5.55;3.03;;;11.20;99.90;;;;;;4980310;28;20035;-69
2022/09/22 05:29:00;;;;;;;4.35;2.97;;;11.20;99.90;;;;;;4978837;28;20137;-72
2022/09/22 05:31:25;;;;;;;6.47;3.47;;;11.20;99.90;;;;;;4979596;28;20134;-69
2022/09/22 05:33:51;;;;;;;4.97;3.10;;;11.20;99.90;;;;;;4980123;28;20023;-70
2022/09/22 05:36:16;;;;;;;4.55;3.10;;;11.30;99.90;;;;;;4986073;28;20036;-71
2022/09/22 05:38:42;;;;;;;5.57;3.20;;;11.30;99.90;;;;;;4963574;28;20038;-70
2022/09/22 05:41:07;;;;;;;5.80;2.90;;;11.20;99.90;;;;;;4979744;28;20045;-70
2022/09/22 05:43:33;;;;;;;5.13;3.70;;;11.30;99.90;;;;;;4980133;28;20520;-71
2022/09/22 05:45:59;;;;;;;5.57;3.50;;;11.30;99.90;;;;;;4979444;28;20203;-69
2022/09/22 05:48:24;;;;;;;4.32;2.80;;;11.30;99.90;;;;;;4980588;28;20032;-71
2022/09/22 05:50:50;;;;;;;5.13;3.20;;;11.30;99.90;;;;;;4980154;28;20085;-70
2022/09/22 05:53:16;;;;;;;5.05;3.35;;;11.30;99.90;;;;;;4979472;28;20120;-70
2022/09/22 05:55:41;;;;;;;6.25;3.25;;;11.40;99.90;;;;;;4980320;28;20039;-70
2022/09/22 05:58:10;;;;;;;6.03;3.60;;;11.40;99.90;;;;;;4978723;28;20077;-69
2022/09/22 06:00:37;;;;;;;6.68;3.40;;;11.40;99.90;;;;;;4980794;28;20105;-69
2022/09/22 06:03:03;;;;;;;5.60;3.22;;;11.40;99.90;;;;;;4978720;28;20082;-70
2022/09/22 06:05:28;;;;;;;4.30;2.97;;;11.40;99.90;;;;;;4979786;28;20037;-69
2022/09/22 06:08:02;;;;;;;9.07;3.15;;;11.50;99.90;;;;;;4978992;28;20089;-69
2022/09/22 06:10:32;;;;;;;4.28;3.17;;;11.40;99.90;;;;;;4979172;28;20043;-73
2022/09/22 06:13:06;;;;;;;4.60;3.30;;;11.40;99.90;;;;;;4978882;28;20031;-76
2022/09/22 06:15:33;;;;;;;4.82;2.97;;;11.50;99.90;;;;;;4980995;28;20038;-72
2022/09/22 06:17:59;;;;;;;5.95;3.30;;;11.50;99.90;;;;;;4977558;28;20085;-69
2022/09/22 06:20:25;;;;;;;6.65;2.97;;;11.60;99.90;;;;;;4977458;28;20204;-69
2022/09/22 06:22:51;;;;;;;6.03;2.83;;;11.60;99.90;;;;;;4979703;28;20683;-73
2022/09/22 06:25:17;;;;;;;4.70;3.13;;;11.60;99.90;;;;;;4979660;28;21712;-72
2022/09/22 06:27:42;;;;;;;5.72;2.92;;;11.70;99.90;;;;;;4979421;28;20144;-71
2022/09/22 06:30:10;;;;;;;5.45;2.88;;;11.70;99.90;;;;;;4979488;28;20631;-72
2022/09/22 06:32:39;;;;;;;5.07;2.95;;;11.70;99.90;;;;;;4982204;28;20029;-71
2022/09/22 06:35:08;;;;;;;7.90;2.60;;;11.70;99.90;;;;;;4982744;28;21549;-73
2022/09/22 06:37:37;;;;;;;5.30;2.97;;;11.80;99.90;;;;;;4980140;28;20136;-73
2022/09/22 06:40:07;;;;;;;5.20;3.22;;;11.80;99.90;;;;;;4979800;28;20054;-73
2022/09/22 06:42:33;;;;;;;4.63;2.85;;;11.80;99.90;;;;;;4978494;28;20101;-73
2022/09/22 06:44:59;;;;;;;5.28;2.85;;;11.80;99.90;;;;;;4978554;28;20591;-73
2022/09/22 06:47:25;;;;;;;6.47;2.55;;;11.90;99.90;;;;;;4978818;28;20049;-73
2022/09/22 06:49:50;;;;;;;10.57;3.53;;;11.90;99.90;;;;;;4980459;28;20030;-74
2022/09/22 06:52:16;;;;;;;5.63;2.83;;;12.00;99.90;;;;;;4978306;28;20029;-74
2022/09/22 06:54:41;;;;;;;6.20;2.78;;;12.00;99.90;;;;;;4979186;28;20046;-74
2022/09/22 06:57:07;;;;;;;8.07;3.30;;;12.10;99.90;;;;;;4978638;28;22255;-73
2022/09/22 06:59:34;;;;;;;5.25;3.20;;;12.10;99.90;;;;;;4980168;28;20039;-73
2022/09/22 07:02:03;;;;;;;6.93;3.00;;;12.20;99.90;;;;;;4978702;28;20026;-72
2022/09/22 07:04:28;;;;;;;5.05;2.90;;;12.20;99.90;;;;;;4979419;28;20041;-73
2022/09/22 07:06:54;;;;;;;5.70;2.83;;;12.30;99.90;;;;;;4979244;28;20030;-73
2022/09/22 07:09:20;;;;;;;4.25;2.72;;;12.30;99.90;;;;;;4978738;28;20031;-70
2022/09/22 07:11:48;;;;;;;4.07;2.65;;;12.40;99.90;;;;;;4978896;28;20037;-73
2022/09/22 07:14:14;;;;;;;9.02;3.05;;;12.50;99.90;;;;;;4978266;28;20042;-70
2022/09/22 07:16:40;;;;;;;5.60;2.65;;;12.50;99.90;;;;;;4977306;28;20023;-69
2022/09/22 07:19:05;;;;;;;5.03;2.65;;;12.60;99.90;;;;;;4978041;28;20059;-72
2022/09/22 07:21:35;;;;;;;3.38;2.50;;;12.60;99.90;;;;;;4978096;28;20165;-69
2022/09/22 07:24:01;;;;;;;4.53;2.30;;;12.60;99.90;;;;;;4979139;28;20596;-73
2022/09/22 07:26:31;;;;;;;3.33;2.38;;;12.70;99.90;;;;;;4979048;28;20042;-73
2022/09/22 07:28:59;;;;;;;3.72;2.22;;;12.70;99.90;;;;;;4983146;28;20145;-73
2022/09/22 07:31:28;;;;;;;3.72;2.28;;;12.80;99.90;;;;;;4978637;28;20379;-73
2022/09/22 07:33:54;;;;;;;4.22;2.10;;;12.80;99.90;;;;;;4978878;28;20753;-73
2022/09/22 07:36:22;;;;;;;3.30;2.05;;;12.90;99.80;;;;;;4975765;28;20026;-70
2022/09/22 07:38:50;;;;;;;4.85;2.50;;;12.90;99.70;;;;;;4979228;28;20042;-71
2022/09/22 07:41:18;;;;;;;5.13;2.20;;;12.90;99.60;;;;;;4977701;28;20034;-70
2022/09/22 07:43:45;;;;;;;5.38;2.58;;;13.00;99.60;;;;;;4978656;28;20129;-70
2022/09/22 07:46:12;;;;;;;2.90;1.90;;;13.00;99.60;;;;;;4980895;28;20065;-72
2022/09/22 07:48:46;;;;;;;3.97;1.98;;;13.10;99.60;;;;;;4982324;28;20030;-70
2022/09/22 07:51:12;;;;;;;3.22;1.92;;;13.10;99.50;;;;;;4982920;28;20026;-69
2022/09/22 07:53:39;;;;;;;4.63;2.10;;;13.10;99.40;;;;;;4982217;28;20036;-69
2022/09/22 07:56:11;;;;;;;2.95;2.08;;;13.20;99.40;;;;;;4982125;28;20027;-69
2022/09/22 07:58:38;;;;;;;7.47;2.67;;;13.20;99.30;;;;;;4982703;28;20035;-69
2022/09/22 08:01:05;;;;;;;4.65;2.08;;;13.20;99.30;;;;;;4980268;28;20034;-69
2022/09/22 08:03:31;;;;;;;4.53;3.45;;;13.30;99.30;;;;;;4982300;28;20551;-68
2022/09/22 08:06:09;;;;;;;6.43;2.20;;;13.30;99.20;;;;;;4980520;28;20041;-68
2022/09/22 08:08:35;;;;;;;3.58;1.95;;;13.40;99.30;;;;;;4981707;28;20030;-69
2022/09/22 08:11:06;;;;;;;5.18;1.85;;;13.40;99.10;;;;;;4981421;28;20089;-69
2022/09/22 08:13:33;;;;;;;4.03;1.90;;;13.50;98.90;;;;;;4981662;28;20058;-69
2022/09/22 08:16:00;;;;;;;3.30;1.95;;;13.50;98.80;;;;;;4980685;28;20041;-70
2022/09/22 08:18:26;;;;;;;4.15;2.00;;;13.50;98.80;;;;;;4964074;28;20134;-68
2022/09/22 08:20:51;;;;;;;4.38;2.17;;;13.50;98.70;;;;;;4980163;28;21813;-68
2022/09/22 08:23:18;;;;;;;5.22;1.73;;;13.60;98.80;;;;;;4981571;28;20034;-69
2022/09/22 08:25:44;;;;;;;2.90;1.50;;;13.60;98.80;;;;;;4981697;28;20026;-68
2022/09/22 08:28:13;;;;;;;2.65;1.60;;;13.70;98.70;;;;;;4964390;28;20097;-69
2022/09/22 08:30:44;;;;;;;4.68;1.92;;;13.80;98.60;;;;;;4980872;28;20023;-69
2022/09/22 08:33:10;;;;;;;7.63;2.55;;;13.80;98.30;;;;;;4987177;28;20033;-69
2022/09/22 08:35:37;;;;;;;2.40;1.60;;;13.80;98.20;;;;;;4980593;28;20018;-69
2022/09/22 08:38:03;;;;;;;2.22;1.58;;;13.80;98.00;;;;;;4980264;28;20034;-69
2022/09/22 08:40:30;;;;;;;10.18;4.13;;;13.80;97.80;;;;;;4981347;28;20046;-69
2022/09/22 08:42:58;;;;;;;7.57;4.40;;;13.90;97.80;;;;;;4980807;28;20076;-69
2022/09/22 08:45:34;;;;;;;4.07;2.17;;;13.90;97.60;;;;;;4978714;28;20040;-68
2022/09/22 08:53:50;;;;;;;3.60;2.10;;;14.10;97.50;;;;;;4980585;28;20065;-68
2022/09/22 08:56:23;;;;;;;2.60;1.40;;;14.10;97.40;;;;;;4979850;28;20109;-68
2022/09/22 08:59:17;;;;;;;2.47;1.20;;;14.20;97.20;;;;;;4979042;28;20026;-69
2022/09/22 09:02:01;;;;;;;3.73;1.83;;;14.20;97.00;;;;;;4980852;28;20038;-69
2022/09/22 09:05:21;;;;;;;2.13;1.23;;;14.30;97.00;;;;;;4981232;28;20633;-69
2022/09/22 09:07:57;;;;;;;2.03;1.15;;;14.40;97.00;;;;;;4980091;28;20039;-68
2022/09/22 09:10:54;;;;;;;1.98;1.33;;;14.40;96.70;;;;;;4962654;28;20022;-68
2022/09/22 09:13:35;;;;;;;3.22;1.10;;;14.50;96.60;;;;;;4980466;28;20033;-69
2022/09/22 09:16:19;;;;;;;6.03;1.67;;;14.50;96.30;;;;;;4977762;28;20022;-69
2022/09/22 09:18:57;;;;;;;3.63;1.77;;;14.60;96.30;;;;;;4980576;28;20049;-69
2022/09/22 09:21:24;;;;;;;2.60;1.40;;;14.60;96.40;;;;;;4979609;28;20557;-69
2022/09/22 09:23:56;;;;;;;2.65;1.15;;;14.70;96.20;;;;;;4979530;28;20088;-69
2022/09/22 09:26:22;;;;;;;2.63;1.10;;;14.80;95.90;;;;;;4979572;28;20023;-69
2022/09/22 09:28:56;;;;;;;4.05;1.15;;;14.80;95.70;;;;;;4980078;28;20054;-69
2022/09/22 09:31:35;;;;;;;;;;;14.80;95.40;;;;;;4979962;28;20483;-69
2022/09/22 09:34:16;;;;;;;1.83;1.30;;;14.90;95.80;;;;;;4979923;28;19917;-69
2022/09/22 09:36:51;;;;;;;2.95;1.38;;;14.90;95.50;;;;;;4985767;28;20042;-69
2022/09/22 09:39:28;;;;;;;;;;;15.00;95.40;;;;;;4980284;28;20488;-68
2022/09/22 09:41:55;;;;;;;1.17;0.80;;;15.10;95.70;;;;;;4979189;28;19988;-69
2022/09/22 09:44:34;;;;;;;1.52;0.93;;;15.10;94.40;;;;;;4980977;28;20034;-69
2022/09/22 09:47:00;;;;;;;3.05;1.15;;;15.10;94.20;;;;;;4980135;28;20027;-69
2022/09/22 09:49:26;;;;;;;1.92;0.98;;;15.20;94.30;;;;;;4979332;28;20034;-69
2022/09/22 09:51:55;;;;;;;1.42;0.80;;;15.20;93.80;;;;;;4980047;28;20026;-69
2022/09/22 09:54:21;;;;;;;3.78;1.42;;;15.30;93.60;;;;;;4979872;28;20452;-69
2022/09/22 09:57:05;;;;;;;1.42;0.98;;;15.40;93.50;;;;;;4979106;28;20100;-69
2022/09/22 10:02:27;;;;;;;;;;;15.50;93.40;;;;;;4978477;28;20507;-69
2022/09/22 10:05:01;;;;;;;2.17;1.00;;;15.50;93.80;;;;;;4978718;28;20048;-68
2022/09/22 10:07:30;;;;;;;1.10;0.80;;;15.50;93.10;;;;;;4979733;28;20042;-69
2022/09/22 10:10:27;;;;;;;3.47;1.05;;;15.50;93.00;;;;;;4978857;28;20125;-69
2022/09/22 10:13:14;;;;;;;1.95;0.90;;;15.50;92.70;;;;;;4959838;28;20026;-68
2022/09/22 10:15:42;;;;;;;1.00;0.85;;;15.60;92.50;;;;;;4980311;28;20038;-70
2022/09/22 10:18:23;;;;;;;2.00;1.20;;;15.60;92.50;;;;;;4978688;28;20084;-69
2022/09/22 10:21:16;;;;;;;1.90;1.10;;;15.60;92.10;;;;;;4979218;28;20042;-69
2022/09/22 10:23:46;;;;;;;2.15;1.23;;;15.70;91.60;;;;;;4970645;28;20037;-69
2022/09/22 10:26:15;;;;;;;3.70;1.10;;;15.80;91.30;;;;;;4978396;28;20034;-69
2022/09/22 10:28:41;;;;;;;3.45;1.10;;;15.80;91.20;;;;;;4979734;28;20043;-69
2022/09/22 10:31:23;;;;;;;3.30;1.10;;;16.00;91.30;;;;;;4979082;28;20026;-69
2022/09/22 10:33:57;;;;;;;1.70;0.90;;;16.10;91.00;;;;;;4984383;28;20029;-68
2022/09/22 10:36:25;;;;;;;1.80;0.88;;;16.20;90.80;;;;;;4977650;28;20037;-69
2022/09/22 10:38:53;;;;;;;2.40;1.20;;;16.20;90.80;;;;;;4979230;28;20042;-68
2022/09/22 10:41:27;;;;;;;2.67;1.10;;;16.30;90.90;;;;;;4975244;28;20089;-69
2022/09/22 10:44:17;;;;;;;1.83;0.98;;;16.40;90.80;;;;;;4973397;28;20046;-68
2022/09/22 10:47:17;;;;;;;1.60;0.88;;;16.50;91.20;;;;;;4966616;28;20034;-69
2022/09/22 10:50:04;;;;;;;2.05;1.40;;;16.50;90.60;;;;;;4975365;28;20082;-70
2022/09/22 10:52:53;;;;;;;2.65;1.10;;;16.50;90.50;;;;;;4974143;28;20022;-69
2022/09/22 10:55:36;;;;;;;2.78;1.13;;;16.50;90.10;;;;;;4973761;28;20035;-69
2022/09/22 10:58:07;;;;;;;2.47;1.40;;;16.50;89.50;;;;;;4970288;28;20041;-69
2022/09/22 11:00:37;;;;;;;1.73;1.20;;;16.50;90.00;;;;;;4973539;28;21653;-68
2022/09/22 11:03:21;;;;;;;1.88;1.20;;;16.50;89.90;;;;;;4972086;28;20037;-69
2022/09/22 11:12:41;;;;;;;3.17;1.27;;;16.60;88.90;;;;;;4925160;28;20041;-69
2022/09/22 11:15:29;;;;;;;0.95;0.80;;;16.60;88.70;;;;;;4973066;28;20030;-69
2022/09/22 11:18:12;;;;;;;2.97;1.30;;;16.60;88.50;;;;;;4970804;28;20031;-69
2022/09/22 11:20:44;;;;;;;1.73;1.10;;;16.60;88.10;;;;;;4973575;28;20072;-69
2022/09/22 11:23:38;;;;;;;3.13;1.30;;;16.60;88.10;;;;;;4975477;28;20049;-69
2022/09/22 11:26:24;;;;;;;2.28;1.00;;;16.60;88.00;;;;;;4975334;28;20042;-69
2022/09/22 11:28:53;;;;;;;2.10;0.85;;;16.60;88.20;;;;;;4981166;28;20065;-69
2022/09/22 11:31:25;;;;;;;6.88;1.90;;;16.70;88.20;;;;;;4960036;28;20463;-70
2022/09/22 11:34:11;;;;;;;4.60;1.27;;;16.80;88.00;;;;;;4976455;28;20134;-69
2022/09/22 11:36:41;;;;;;;2.38;1.40;;;16.90;87.30;;;;;;4976321;28;20072;-69
2022/09/22 11:39:12;;;;;;;3.20;0.90;;;16.90;87.10;;;;;;4978336;28;20564;-70
2022/09/22 11:41:59;;;;;;;2.00;1.02;;;17.00;86.70;;;;;;4961016;28;20084;-69
2022/09/22 11:44:56;;;;;;;1.33;0.70;;;16.90;85.70;;;;;;4980237;28;20026;-70
2022/09/22 11:47:46;;;;;;;3.08;1.20;;;17.00;86.20;;;;;;4973576;28;20034;-70
2022/09/22 11:50:23;;;;;;;2.92;0.95;;;17.10;84.90;;;;;;4969787;28;20323;-69
2022/09/22 11:53:15;;;;;;;0.77;0.55;;;17.10;84.40;;;;;;4971397;28;20494;-69
2022/09/22 11:56:05;;;;;;;1.73;0.80;;;17.20;84.00;;;;;;4976083;28;20378;-70
2022/09/22 11:58:34;;;;;;;1.80;1.02;;;17.20;84.40;;;;;;4979494;28;20030;-70
2022/09/22 12:01:07;;;;;;;1.27;0.90;;;17.20;82.10;;;;;;4973830;28;20162;-70
2022/09/22 12:03:39;;;;;;;1.02;0.70;;;17.30;82.00;;;;;;4977180;28;20057;-70
2022/09/22 12:06:08;;;;;;;0.93;0.70;;;17.30;82.70;;;;;;4975591;28;20034;-70
2022/09/22 12:08:53;;;;;;;1.17;0.73;;;17.30;81.90;;;;;;4974766;28;20038;-69
2022/09/22 12:11:20;;;;;;;3.47;1.05;;;17.30;81.80;;;;;;4974526;28;20030;-70
2022/09/22 12:13:52;;;;;;;2.83;0.95;;;17.30;82.80;;;;;;4973953;28;21750;-69
2022/09/22 12:16:40;;;;;;;0.75;0.73;;;17.40;82.10;;;;;;4972088;28;20030;-70
2022/09/22 12:19:14;;;;;;;1.65;0.73;;;17.40;80.60;;;;;;4977763;28;20026;-70
2022/09/22 12:21:59;;;;;;;1.85;1.00;;;17.30;80.70;;;;;;4974191;28;20035;-70
2022/09/22 12:24:25;;;;;;;;;;;17.30;81.20;;;;;;4976043;28;20030;-70
2022/09/22 12:26:51;;;;;;;1.45;0.88;;;17.40;82.50;;;;;;4973700;28;19917;-70
2022/09/22 12:29:23;;;;;;;0.50;0.50;;;17.50;82.20;;;;;;4974646;28;20038;-71
2022/09/22 12:31:51;;;;;;;2.13;0.82;;;17.50;80.60;;;;;;4974011;28;20643;-70
2022/09/22 12:34:32;;;;;;;1.73;0.93;;;17.60;80.50;;;;;;4976650;28;20065;-70
2022/09/22 12:37:11;;;;;;;1.25;0.90;;;17.60;81.60;;;;;;4976659;28;20027;-70
2022/09/22 12:39:43;;;;;;;1.48;0.80;;;17.70;82.10;;;;;;4975419;28;20038;-70
2022/09/22 12:42:33;;;;;;;1.55;0.90;;;17.80;81.40;;;;;;4974490;28;20038;-70
2022/09/22 12:45:14;;;;;;;2.65;1.00;;;17.90;81.20;;;;;;4974742;28;20026;-70
2022/09/22 12:47:41;;;;;;;1.02;0.90;;;18.00;80.90;;;;;;4974538;28;20034;-70
2022/09/22 12:50:32;;;;;;;1.00;0.77;;;18.10;81.00;;;;;;4982383;28;20366;-70
2022/09/22 12:53:08;;;;;;;1.42;0.90;;;18.00;78.80;;;;;;4974959;28;20355;-70
2022/09/22 12:55:37;;;;;;;1.70;0.90;;;18.10;79.80;;;;;;4975929;28;20077;-69
2022/09/22 12:58:18;;;;;;;1.05;0.80;;;18.20;79.90;;;;;;4971641;28;20518;-69
2022/09/22 13:00:44;;;;;;;1.35;0.90;;;18.20;80.50;;;;;;4971923;28;20046;-70
2022/09/22 13:03:25;;;;;;;3.10;0.90;;;18.40;80.10;;;;;;4974333;28;20363;-70
2022/09/22 13:05:57;;;;;;;1.50;1.05;;;18.50;80.70;;;;;;4973823;28;20026;-70
2022/09/22 13:08:29;;;;;;;1.48;0.85;;;18.60;80.80;;;;;;4976673;28;20042;-70
2022/09/22 13:11:00;;;;;;;2.03;0.85;;;18.70;80.00;;;;;;4975553;28;20034;-70
2022/09/22 13:13:28;;;;;;;1.30;0.80;;;18.80;79.70;;;;;;4966049;28;20043;-71
2022/09/22 13:16:00;;;;;;;1.08;0.60;;;18.90;77.40;;;;;;4961280;28;20027;-70
2022/09/22 13:18:40;;;;;;;1.73;0.90;;;18.90;76.40;;;;;;4965720;28;20513;-71
2022/09/22 13:21:12;;;;;;;1.33;0.57;;;18.90;75.90;;;;;;4977867;28;20038;-70
2022/09/22 13:23:50;;;;;;;1.77;0.75;;;18.90;74.50;;;;;;4980275;28;20103;-70
2022/09/22 13:26:29;;;;;;;1.20;0.70;;;18.90;74.50;;;;;;4980755;28;20532;-69